Time;durP1;ratioP1;P1;durP2;ratioP2;P2;SDS_P1;SDS_P2;PMS_P1;PMS_P2;Temp;Humidity;BMP_temperature;BMP_pressure;BME280_temperature;BME280_humidity;BME280_pressure;Samples;Min_cycle;Max_cycle;Signal;HPM_P1;HPM_P2
2024/01/24 00:01:14;;;;;;;3.67;0.80;;;;;;;;;;5016324;28;20415;-58
2024/01/24 00:03:40;;;;;;;2.25;0.80;;;;;;;;;;5018636;28;20091;-53
2024/01/24 00:06:07;;;;;;;5.85;0.80;;;;;;;;;;5019503;28;20025;-55
2024/01/24 00:08:33;;;;;;;4.07;0.90;;;;;;;;;;5017407;28;20022;-58
2024/01/24 00:11:01;;;;;;;2.55;1.05;;;;;;;;;;5018428;28;20115;-58
2024/01/24 00:13:27;;;;;;;2.95;0.80;;;;;;;;;;5019249;28;20511;-58
2024/01/24 00:15:53;;;;;;;2.28;0.80;;;;;;;;;;5017269;28;20065;-57
2024/01/24 00:18:19;;;;;;;5.03;1.23;;;;;;;;;;5032214;28;20107;-57
2024/01/24 00:20:45;;;;;;;3.70;0.90;;;;;;;;;;5019785;28;20123;-55
2024/01/24 00:23:11;;;;;;;2.53;1.02;;;;;;;;;;5019498;28;20034;-58
2024/01/24 00:25:37;;;;;;;3.67;0.95;;;;;;;;;;5022405;28;20030;-58
2024/01/24 00:28:03;;;;;;;3.78;1.17;;;;;;;;;;5020028;28;20037;-58
2024/01/24 00:30:29;;;;;;;2.97;1.13;;;;;;;;;;5021739;28;20039;-58
2024/01/24 00:32:55;;;;;;;6.93;1.02;;;;;;;;;;5026584;28;20034;-58
2024/01/24 00:35:21;;;;;;;11.40;1.25;;;;;;;;;;5022252;28;20057;-58
2024/01/24 00:37:47;;;;;;;4.53;0.98;;;;;;;;;;5015359;28;20526;-59
2024/01/24 00:40:13;;;;;;;2.22;0.80;;;;;;;;;;5016968;28;20030;-59
2024/01/24 00:42:42;;;;;;;3.03;0.95;;;;;;;;;;5018934;28;20029;-57
2024/01/24 00:45:08;;;;;;;2.30;0.82;;;;;;;;;;5019871;28;20030;-56
2024/01/24 00:47:35;;;;;;;2.90;1.30;;;;;;;;;;5018159;28;20061;-56
2024/01/24 00:50:01;;;;;;;5.07;1.30;;;;;;;;;;5019801;28;20053;-59
2024/01/24 00:52:27;;;;;;;3.22;1.10;;;;;;;;;;5019079;28;20093;-56
2024/01/24 00:54:53;;;;;;;1.60;1.02;;;;;;;;;;5018123;28;20527;-58
2024/01/24 00:57:19;;;;;;;5.18;1.30;;;;;;;;;;5017678;28;20496;-58
2024/01/24 00:59:45;;;;;;;6.35;1.27;;;;;;;;;;5019525;28;20404;-58
2024/01/24 01:02:11;;;;;;;5.00;1.05;;;;;;;;;;5015369;28;20481;-55
2024/01/24 01:04:36;;;;;;;2.53;1.08;;;;;;;;;;5019856;28;20626;-55
2024/01/24 01:07:02;;;;;;;3.72;1.30;;;;;;;;;;5015265;28;20025;-56
2024/01/24 01:09:28;;;;;;;4.10;1.20;;;;;;;;;;5015250;28;20014;-55
2024/01/24 01:11:54;;;;;;;7.78;1.50;;;;;;;;;;5012921;28;20029;-57
2024/01/24 01:14:20;;;;;;;3.78;1.25;;;;;;;;;;5012269;28;20040;-57
2024/01/24 01:16:46;;;;;;;4.03;1.73;;;;;;;;;;5015633;28;20036;-57
2024/01/24 01:19:12;;;;;;;7.05;1.50;;;;;;;;;;5015598;28;20124;-56
2024/01/24 01:21:40;;;;;;;5.90;1.17;;;;;;;;;;5014496;28;20048;-57
2024/01/24 01:24:06;;;;;;;5.47;1.35;;;;;;;;;;5019205;28;20030;-59
2024/01/24 01:26:32;;;;;;;2.58;1.25;;;;;;;;;;5017205;28;20042;-59
2024/01/24 01:28:58;;;;;;;11.25;1.08;;;;;;;;;;5020705;28;20391;-59
2024/01/24 01:31:24;;;;;;;5.15;1.33;;;;;;;;;;5016599;28;20386;-60
2024/01/24 01:33:50;;;;;;;2.55;1.00;;;;;;;;;;5018578;28;20037;-58
2024/01/24 01:36:16;;;;;;;6.38;1.02;;;;;;;;;;5012904;28;20034;-58
2024/01/24 01:38:42;;;;;;;4.82;1.30;;;;;;;;;;5011840;28;20046;-59
2024/01/24 01:41:08;;;;;;;4.63;1.40;;;;;;;;;;5013604;28;20113;-58
2024/01/24 01:43:34;;;;;;;5.28;1.55;;;;;;;;;;5015429;28;20037;-59
2024/01/24 01:46:06;;;;;;;6.68;1.30;;;;;;;;;;5015807;28;20022;-57
2024/01/24 01:48:32;;;;;;;4.18;1.20;;;;;;;;;;5016527;28;20376;-54
2024/01/24 01:50:58;;;;;;;9.05;1.23;;;;;;;;;;5013235;28;20022;-58
2024/01/24 01:53:24;;;;;;;4.63;1.35;;;;;;;;;;5013465;28;20032;-58
2024/01/24 01:55:50;;;;;;;2.47;0.90;;;;;;;;;;5011592;28;20117;-57
2024/01/24 01:58:17;;;;;;;4.55;1.10;;;;;;;;;;5015991;28;20037;-59
2024/01/24 02:00:45;;;;;;;2.85;1.27;;;;;;;;;;5013149;28;20026;-58
2024/01/24 02:03:12;;;;;;;4.22;1.08;;;;;;;;;;5014710;28;20514;-56
2024/01/24 02:05:38;;;;;;;3.28;1.00;;;;;;;;;;5020452;28;20034;-58
2024/01/24 02:08:05;;;;;;;4.18;1.17;;;;;;;;;;5013858;28;20026;-57
2024/01/24 02:10:31;;;;;;;1.80;1.10;;;;;;;;;;5012665;28;20029;-58
2024/01/24 02:12:57;;;;;;;3.95;1.58;;;;;;;;;;5013949;28;20026;-57
2024/01/24 02:15:23;;;;;;;5.40;1.45;;;;;;;;;;5011841;28;20088;-57
2024/01/24 02:17:49;;;;;;;6.00;1.30;;;;;;;;;;5013864;28;20034;-59
2024/01/24 02:20:18;;;;;;;4.03;1.20;;;;;;;;;;5015854;28;20021;-58
2024/01/24 02:22:44;;;;;;;2.95;1.42;;;;;;;;;;5016075;28;20026;-57
2024/01/24 02:25:10;;;;;;;1.75;0.90;;;;;;;;;;5013270;28;20099;-58
2024/01/24 02:27:35;;;;;;;4.10;1.10;;;;;;;;;;5013220;28;20056;-58
2024/01/24 02:30:01;;;;;;;2.50;0.80;;;;;;;;;;5015239;28;20032;-58
2024/01/24 02:32:27;;;;;;;8.02;1.15;;;;;;;;;;5012276;28;20041;-58
2024/01/24 02:34:53;;;;;;;2.55;1.00;;;;;;;;;;5015147;28;20704;-58
2024/01/24 02:37:20;;;;;;;2.42;1.00;;;;;;;;;;5014794;28;20030;-58
2024/01/24 02:39:49;;;;;;;2.00;0.80;;;;;;;;;;5017569;28;20025;-59
2024/01/24 02:42:15;;;;;;;4.05;0.90;;;;;;;;;;5013861;28;20420;-56
2024/01/24 02:44:41;;;;;;;2.00;1.00;;;;;;;;;;5012025;28;20507;-55
2024/01/24 02:47:07;;;;;;;4.25;0.90;;;;;;;;;;5014868;28;20026;-58
2024/01/24 02:49:33;;;;;;;3.13;1.13;;;;;;;;;;5012565;28;20476;-58
2024/01/24 02:52:02;;;;;;;3.35;0.75;;;;;;;;;;5017341;28;20516;-57
2024/01/24 02:54:28;;;;;;;3.17;0.95;;;;;;;;;;5010748;28;22084;-58
2024/01/24 02:56:54;;;;;;;1.27;0.57;;;;;;;;;;5010054;28;20044;-58
2024/01/24 02:59:20;;;;;;;2.72;0.70;;;;;;;;;;5022923;28;20026;-59
2024/01/24 03:01:46;;;;;;;3.72;0.90;;;;;;;;;;5015896;28;20117;-59
2024/01/24 03:04:12;;;;;;;5.43;0.80;;;;;;;;;;5013658;28;20038;-56
2024/01/24 03:06:40;;;;;;;1.27;0.50;;;;;;;;;;5011857;28;20220;-58
2024/01/24 03:09:07;;;;;;;1.50;0.63;;;;;;;;;;5014059;28;20018;-55
2024/01/24 03:11:33;;;;;;;2.63;0.60;;;;;;;;;;5011912;28;20048;-57
2024/01/24 03:13:59;;;;;;;3.08;0.70;;;;;;;;;;5013339;28;20052;-54
2024/01/24 03:16:25;;;;;;;1.33;0.47;;;;;;;;;;5009379;28;20105;-58
2024/01/24 03:18:51;;;;;;;0.50;0.50;;;;;;;;;;5013436;28;20562;-58
2024/01/24 03:21:17;;;;;;;0.98;0.60;;;;;;;;;;5011222;28;20132;-58
2024/01/24 03:23:44;;;;;;;2.58;0.68;;;;;;;;;;5015596;28;20034;-58
2024/01/24 03:26:10;;;;;;;3.30;0.70;;;;;;;;;;5011082;28;20026;-57
2024/01/24 03:28:36;;;;;;;0.40;0.40;;;;;;;;;;5017667;28;20033;-59
2024/01/24 03:31:03;;;;;;;2.17;0.50;;;;;;;;;;5011938;28;20026;-58
2024/01/24 03:33:29;;;;;;;1.73;0.35;;;;;;;;;;5015398;28;20034;-58
2024/01/24 03:35:55;;;;;;;2.13;0.50;;;;;;;;;;5010334;28;20029;-57
2024/01/24 03:38:21;;;;;;;0.98;0.40;;;;;;;;;;5018340;28;20017;-58
2024/01/24 03:40:47;;;;;;;0.30;0.30;;;;;;;;;;5013267;28;20506;-56
2024/01/24 03:43:13;;;;;;;0.55;0.30;;;;;;;;;;5015416;28;20034;-58
2024/01/24 03:45:40;;;;;;;1.60;0.30;;;;;;;;;;5014193;28;20030;-54
2024/01/24 03:48:06;;;;;;;0.75;0.35;;;;;;;;;;5014132;28;20052;-57
2024/01/24 03:50:33;;;;;;;0.75;0.30;;;;;;;;;;5011472;28;20160;-58
2024/01/24 03:53:01;;;;;;;0.98;0.30;;;;;;;;;;5013129;28;20040;-58
2024/01/24 03:55:27;;;;;;;0.88;0.30;;;;;;;;;;5012540;28;20022;-58
2024/01/24 03:57:53;;;;;;;0.30;0.30;;;;;;;;;;5012985;28;20049;-57
2024/01/24 04:00:19;;;;;;;0.40;0.40;;;;;;;;;;5012080;28;20021;-58
2024/01/24 04:02:45;;;;;;;0.30;0.30;;;;;;;;;;5013362;28;20034;-55
2024/01/24 04:05:11;;;;;;;0.50;0.30;;;;;;;;;;5013962;28;20030;-58
2024/01/24 04:07:37;;;;;;;0.43;0.20;;;;;;;;;;5015664;28;20050;-59
2024/01/24 04:10:03;;;;;;;0.20;0.20;;;;;;;;;;5012941;28;20034;-58
2024/01/24 04:12:30;;;;;;;0.20;0.20;;;;;;;;;;5014837;28;20024;-56
2024/01/24 04:14:56;;;;;;;0.20;0.20;;;;;;;;;;5014082;28;20040;-57
2024/01/24 04:17:22;;;;;;;0.40;0.20;;;;;;;;;;5014938;28;20029;-56
2024/01/24 04:19:48;;;;;;;0.20;0.20;;;;;;;;;;5013303;28;20100;-58
2024/01/24 04:22:15;;;;;;;0.40;0.30;;;;;;;;;;5015120;28;20088;-58
2024/01/24 04:24:41;;;;;;;2.05;0.20;;;;;;;;;;5014323;28;20025;-59
2024/01/24 04:27:07;;;;;;;0.68;0.40;;;;;;;;;;5015339;28;20037;-57
2024/01/24 04:29:33;;;;;;;3.38;0.30;;;;;;;;;;5013784;28;20464;-58
2024/01/24 04:31:59;;;;;;;0.20;0.20;;;;;;;;;;5010260;28;20029;-56
2024/01/24 04:34:25;;;;;;;0.20;0.20;;;;;;;;;;5013217;28;20037;-58
2024/01/24 04:36:54;;;;;;;0.60;0.40;;;;;;;;;;5015967;28;20049;-57
2024/01/24 04:39:20;;;;;;;1.08;0.30;;;;;;;;;;5016084;28;20098;-55
2024/01/24 04:41:46;;;;;;;0.30;0.30;;;;;;;;;;5015756;28;20405;-55
2024/01/24 04:44:12;;;;;;;0.55;0.43;;;;;;;;;;5018737;28;20026;-57
2024/01/24 04:46:38;;;;;;;0.30;0.30;;;;;;;;;;5014021;28;20388;-56
2024/01/24 04:49:04;;;;;;;0.50;0.30;;;;;;;;;;5020409;28;20577;-57
2024/01/24 04:51:30;;;;;;;1.25;0.30;;;;;;;;;;5016836;28;20053;-58
2024/01/24 04:53:56;;;;;;;0.20;0.20;;;;;;;;;;5021646;28;20456;-57
2024/01/24 04:56:22;;;;;;;0.22;0.20;;;;;;;;;;5015869;28;20499;-58
2024/01/24 04:58:48;;;;;;;0.30;0.28;;;;;;;;;;5015962;28;20519;-58
2024/01/24 05:01:13;;;;;;;0.40;0.30;;;;;;;;;;5014619;28;20044;-59
2024/01/24 05:03:39;;;;;;;0.63;0.30;;;;;;;;;;5015075;28;20121;-58
2024/01/24 05:06:07;;;;;;;0.50;0.30;;;;;;;;;;5018464;28;20036;-55
2024/01/24 05:08:32;;;;;;;0.52;0.30;;;;;;;;;;5022197;28;20398;-57
2024/01/24 05:10:59;;;;;;;0.30;0.30;;;;;;;;;;5014898;28;20103;-55
2024/01/24 05:13:25;;;;;;;1.65;0.40;;;;;;;;;;5012627;28;20060;-56
2024/01/24 05:15:51;;;;;;;0.47;0.30;;;;;;;;;;5013604;28;20517;-57
2024/01/24 05:18:16;;;;;;;2.28;0.35;;;;;;;;;;5014636;28;20029;-58
2024/01/24 05:20:42;;;;;;;0.98;0.40;;;;;;;;;;5014516;28;20086;-55
2024/01/24 05:23:08;;;;;;;3.03;0.50;;;;;;;;;;5017882;28;20061;-55
2024/01/24 05:25:35;;;;;;;2.85;0.45;;;;;;;;;;5016283;28;20033;-56
2024/01/24 05:28:01;;;;;;;4.55;0.40;;;;;;;;;;5011850;28;20063;-58
2024/01/24 05:30:27;;;;;;;3.83;0.68;;;;;;;;;;5020629;28;20544;-55
2024/01/24 05:32:57;;;;;;;1.50;0.50;;;;;;;;;;5018064;28;20029;-59
2024/01/24 05:35:24;;;;;;;1.42;0.60;;;;;;;;;;5015568;28;20052;-55
2024/01/24 05:37:50;;;;;;;2.70;0.57;;;;;;;;;;5012408;28;20096;-58
2024/01/24 05:40:17;;;;;;;0.73;0.47;;;;;;;;;;5018779;28;20112;-58
2024/01/24 05:42:43;;;;;;;4.13;0.60;;;;;;;;;;5010298;28;20041;-56
2024/01/24 05:45:10;;;;;;;5.07;0.98;;;;;;;;;;5017170;28;20030;-55
2024/01/24 05:47:37;;;;;;;1.75;0.52;;;;;;;;;;5012387;28;20048;-55
2024/01/24 05:50:03;;;;;;;4.35;0.73;;;;;;;;;;5018464;28;20021;-57
2024/01/24 05:52:29;;;;;;;7.85;0.90;;;;;;;;;;5020666;28;20391;-58
2024/01/24 05:54:55;;;;;;;4.40;1.23;;;;;;;;;;5013486;28;20030;-57
2024/01/24 05:57:21;;;;;;;6.03;1.10;;;;;;;;;;5012031;28;20056;-57
2024/01/24 05:59:48;;;;;;;4.50;0.90;;;;;;;;;;5015044;28;20354;-58
2024/01/24 06:02:13;;;;;;;7.07;1.10;;;;;;;;;;5011093;28;20029;-57
2024/01/24 06:04:39;;;;;;;12.82;1.60;;;;;;;;;;5011644;28;21851;-56
2024/01/24 06:07:06;;;;;;;11.00;1.42;;;;;;;;;;5012720;28;20022;-57
2024/01/24 06:09:32;;;;;;;7.50;1.40;;;;;;;;;;5019768;28;20033;-56
2024/01/24 06:11:58;;;;;;;11.13;1.10;;;;;;;;;;5014627;28;20084;-55
2024/01/24 06:14:24;;;;;;;13.15;1.30;;;;;;;;;;5016012;28;20075;-57
2024/01/24 06:16:50;;;;;;;4.18;1.38;;;;;;;;;;5011985;28;20462;-57
2024/01/24 06:19:17;;;;;;;7.95;1.13;;;;;;;;;;5016929;28;20124;-58
2024/01/24 06:21:42;;;;;;;11.18;1.73;;;;;;;;;;5015234;28;20515;-58
2024/01/24 06:24:08;;;;;;;12.13;1.58;;;;;;;;;;5016206;28;20034;-56
2024/01/24 06:26:35;;;;;;;11.43;1.80;;;;;;;;;;5014080;28;20026;-59
2024/01/24 06:29:00;;;;;;;16.35;2.08;;;;;;;;;;5014957;28;20018;-57
2024/01/24 06:31:26;;;;;;;10.90;1.58;;;;;;;;;;5010229;28;20053;-55
2024/01/24 06:33:53;;;;;;;14.25;2.33;;;;;;;;;;5012078;28;20080;-57
2024/01/24 06:36:20;;;;;;;18.13;3.15;;;;;;;;;;5014563;28;20022;-56
2024/01/24 06:38:46;;;;;;;19.25;2.95;;;;;;;;;;5012396;28;20057;-54
2024/01/24 06:41:13;;;;;;;19.63;3.45;;;;;;;;;;5017765;28;20041;-58
2024/01/24 06:43:41;;;;;;;31.02;4.03;;;;;;;;;;5010911;28;20058;-60
2024/01/24 06:46:08;;;;;;;20.33;3.10;;;;;;;;;;5011375;28;20595;-57
2024/01/24 06:48:34;;;;;;;23.27;3.58;;;;;;;;;;5009652;28;20053;-57
2024/01/24 06:51:00;;;;;;;20.23;3.58;;;;;;;;;;5007989;28;20050;-58
2024/01/24 06:53:26;;;;;;;20.35;3.30;;;;;;;;;;5012509;28;20033;-59
2024/01/24 06:55:52;;;;;;;22.88;3.75;;;;;;;;;;5009395;28;20033;-59
2024/01/24 06:58:18;;;;;;;21.55;3.72;;;;;;;;;;5014816;28;20048;-59
2024/01/24 07:00:44;;;;;;;25.77;5.10;;;;;;;;;;5016384;28;20058;-57
2024/01/24 07:03:10;;;;;;;22.48;3.55;;;;;;;;;;5015700;28;20437;-57
2024/01/24 07:05:36;;;;;;;43.55;5.20;;;;;;;;;;5010704;28;20050;-57
2024/01/24 07:08:02;;;;;;;28.80;4.30;;;;;;;;;;5012016;28;20065;-58
2024/01/24 07:10:28;;;;;;;23.38;3.67;;;;;;;;;;5019186;28;20396;-57
2024/01/24 07:12:55;;;;;;;26.35;3.63;;;;;;;;;;5012260;28;20022;-56
2024/01/24 07:15:21;;;;;;;27.35;5.07;;;;;;;;;;5014929;28;20037;-58
2024/01/24 07:17:47;;;;;;;29.88;4.60;;;;;;;;;;5011564;28;20033;-58
2024/01/24 07:20:15;;;;;;;32.70;4.43;;;;;;;;;;5018222;28;20026;-58
2024/01/24 07:22:41;;;;;;;19.73;4.22;;;;;;;;;;5015412;28;20156;-58
2024/01/24 07:25:08;;;;;;;32.08;5.43;;;;;;;;;;5014868;28;20033;-58
2024/01/24 07:27:37;;;;;;;26.80;3.92;;;;;;;;;;5013390;28;20068;-57
2024/01/24 07:30:05;;;;;;;22.90;4.18;;;;;;;;;;5016558;28;20053;-58
2024/01/24 07:32:31;;;;;;;30.17;5.15;;;;;;;;;;5012329;28;20026;-59
2024/01/24 07:35:01;;;;;;;24.92;4.15;;;;;;;;;;5014847;28;20445;-57
2024/01/24 07:37:27;;;;;;;29.73;4.63;;;;;;;;;;5011524;28;20156;-57
2024/01/24 07:39:54;;;;;;;25.27;3.60;;;;;;;;;;5013657;28;20085;-58
2024/01/24 07:42:20;;;;;;;26.33;3.95;;;;;;;;;;5013688;28;20038;-56
2024/01/24 07:44:46;;;;;;;29.45;3.88;;;;;;;;;;5015197;28;20096;-58
2024/01/24 07:47:12;;;;;;;28.40;5.43;;;;;;;;;;5016156;28;20512;-57
2024/01/24 07:49:39;;;;;;;40.03;4.82;;;;;;;;;;5017395;28;20121;-58
2024/01/24 07:52:05;;;;;;;33.67;5.10;;;;;;;;;;5013844;28;20032;-57
2024/01/24 07:54:31;;;;;;;41.00;4.38;;;;;;;;;;5017145;28;20060;-58
2024/01/24 07:56:57;;;;;;;36.10;4.90;;;;;;;;;;5018166;28;20065;-56
2024/01/24 07:59:23;;;;;;;48.85;5.68;;;;;;;;;;5022404;28;20037;-55
2024/01/24 08:01:48;;;;;;;34.30;5.78;;;;;;;;;;5016255;28;20104;-56
2024/01/24 08:04:14;;;;;;;38.40;5.75;;;;;;;;;;5018008;28;20111;-54
2024/01/24 08:06:45;;;;;;;37.33;5.43;;;;;;;;;;5013094;28;20022;-55
2024/01/24 08:09:11;;;;;;;37.33;5.47;;;;;;;;;;5017436;28;20446;-58
2024/01/24 08:11:37;;;;;;;37.03;5.22;;;;;;;;;;5016794;28;20113;-57
2024/01/24 08:14:03;;;;;;;42.75;5.82;;;;;;;;;;5020920;28;20524;-55
2024/01/24 08:16:29;;;;;;;25.95;4.78;;;;;;;;;;5022807;28;20026;-58
2024/01/24 08:18:58;;;;;;;37.45;5.78;;;;;;;;;;5023686;28;20113;-58
2024/01/24 08:21:24;;;;;;;33.22;4.75;;;;;;;;;;5016209;28;20033;-57
2024/01/24 08:23:49;;;;;;;38.97;5.45;;;;;;;;;;5021380;28;20029;-58
2024/01/24 08:26:15;;;;;;;35.25;4.93;;;;;;;;;;5017396;28;20034;-57
2024/01/24 08:28:42;;;;;;;31.95;5.13;;;;;;;;;;5021145;28;20041;-55
2024/01/24 08:31:09;;;;;;;32.38;5.25;;;;;;;;;;5015339;28;20049;-58
2024/01/24 08:33:35;;;;;;;36.55;4.90;;;;;;;;;;5019899;28;20049;-59
2024/01/24 08:36:01;;;;;;;30.40;4.53;;;;;;;;;;5016575;28;20022;-56
2024/01/24 08:38:27;;;;;;;40.03;6.22;;;;;;;;;;5017042;28;20396;-56
2024/01/24 08:40:53;;;;;;;42.90;5.68;;;;;;;;;;5014082;28;20583;-58
2024/01/24 08:43:19;;;;;;;35.63;4.88;;;;;;;;;;5015561;28;20442;-55
2024/01/24 08:45:44;;;;;;;40.28;6.28;;;;;;;;;;5017835;28;20029;-57
2024/01/24 08:48:10;;;;;;;43.30;6.35;;;;;;;;;;5017838;28;20050;-58
2024/01/24 08:50:36;;;;;;;33.28;5.85;;;;;;;;;;5017848;28;20018;-56
2024/01/24 08:53:02;;;;;;;39.45;5.88;;;;;;;;;;5015313;28;20029;-57
2024/01/24 08:55:28;;;;;;;47.45;6.50;;;;;;;;;;5021646;28;20036;-58
2024/01/24 08:57:54;;;;;;;41.03;6.70;;;;;;;;;;5016955;28;20034;-59
2024/01/24 09:00:20;;;;;;;56.13;7.20;;;;;;;;;;5022191;28;20029;-57
2024/01/24 09:02:46;;;;;;;47.72;7.63;;;;;;;;;;5017939;28;20036;-59
2024/01/24 09:05:13;;;;;;;55.28;7.05;;;;;;;;;;5020012;28;20037;-58
2024/01/24 09:07:39;;;;;;;46.63;5.97;;;;;;;;;;5015015;28;20018;-60
2024/01/24 09:10:06;;;;;;;47.13;6.45;;;;;;;;;;5018402;28;20559;-56
2024/01/24 09:12:32;;;;;;;39.50;6.03;;;;;;;;;;5018301;28;20057;-56
2024/01/24 09:14:58;;;;;;;45.33;6.75;;;;;;;;;;5022516;28;20041;-55
2024/01/24 09:17:24;;;;;;;47.20;6.97;;;;;;;;;;5017761;28;20525;-58
2024/01/24 09:19:50;;;;;;;30.85;5.57;;;;;;;;;;5015849;28;20463;-57
2024/01/24 09:22:16;;;;;;;58.90;8.27;;;;;;;;;;5013399;28;20455;-57
2024/01/24 09:24:42;;;;;;;35.92;5.03;;;;;;;;;;5021216;28;20030;-56
2024/01/24 09:27:09;;;;;;;42.45;6.18;;;;;;;;;;5013077;28;20026;-58
2024/01/24 09:29:35;;;;;;;44.45;6.93;;;;;;;;;;5024453;28;20029;-55
2024/01/24 09:32:01;;;;;;;43.78;5.97;;;;;;;;;;5015616;28;20033;-56
2024/01/24 09:34:27;;;;;;;38.58;7.05;;;;;;;;;;5018069;28;20033;-56
2024/01/24 09:36:53;;;;;;;59.88;6.95;;;;;;;;;;5010907;28;20026;-58
2024/01/24 09:39:19;;;;;;;51.78;6.50;;;;;;;;;;5024173;28;20033;-55
2024/01/24 09:41:48;;;;;;;53.38;6.35;;;;;;;;;;5014509;28;20103;-58
2024/01/24 09:44:17;;;;;;;61.20;7.28;;;;;;;;;;5023132;28;20157;-58
2024/01/24 09:46:43;;;;;;;53.25;7.30;;;;;;;;;;5010187;28;20063;-58
2024/01/24 09:49:10;;;;;;;58.03;7.65;;;;;;;;;;5022700;28;20100;-58
2024/01/24 09:51:36;;;;;;;55.30;6.15;;;;;;;;;;5017176;28;20107;-58
2024/01/24 09:54:05;;;;;;;53.33;7.00;;;;;;;;;;5017855;28;20042;-56
2024/01/24 09:56:33;;;;;;;44.30;6.68;;;;;;;;;;5017084;28;20508;-58
2024/01/24 09:58:58;;;;;;;40.70;6.90;;;;;;;;;;5022228;28;20034;-58
2024/01/24 10:01:25;;;;;;;44.83;6.53;;;;;;;;;;5011320;28;20041;-54
2024/01/24 10:03:52;;;;;;;42.45;7.47;;;;;;;;;;5018160;28;20612;-54
2024/01/24 10:06:19;;;;;;;43.45;6.28;;;;;;;;;;5013447;28;20049;-57
2024/01/24 10:08:45;;;;;;;36.50;5.35;;;;;;;;;;5015780;28;20029;-55
2024/01/24 10:11:11;;;;;;;58.20;7.43;;;;;;;;;;5014939;28;20030;-57
2024/01/24 10:13:40;;;;;;;54.85;7.65;;;;;;;;;;5017443;28;20033;-57
2024/01/24 10:16:07;;;;;;;51.22;6.65;;;;;;;;;;5017520;28;20034;-55
2024/01/24 10:18:33;;;;;;;53.78;6.90;;;;;;;;;;5014449;28;20040;-55
2024/01/24 10:21:03;;;;;;;58.53;7.38;;;;;;;;;;5010942;28;20058;-57
2024/01/24 10:23:30;;;;;;;47.00;7.90;;;;;;;;;;5017275;28;20088;-58
2024/01/24 10:25:56;;;;;;;40.33;6.72;;;;;;;;;;5016526;28;20369;-57
2024/01/24 10:28:22;;;;;;;57.50;7.53;;;;;;;;;;5010770;28;20041;-56
2024/01/24 10:30:51;;;;;;;45.05;6.65;;;;;;;;;;5020555;28;20086;-58
2024/01/24 10:33:18;;;;;;;46.45;7.00;;;;;;;;;;5017132;28;20047;-58
2024/01/24 10:35:44;;;;;;;61.10;7.53;;;;;;;;;;5017156;28;20045;-58
2024/01/24 10:38:11;;;;;;;41.60;5.90;;;;;;;;;;5015581;28;20034;-58
2024/01/24 10:40:39;;;;;;;41.88;6.15;;;;;;;;;;5020484;28;20357;-56
2024/01/24 10:43:09;;;;;;;63.17;7.57;;;;;;;;;;5016676;28;20618;-57
2024/01/24 10:45:35;;;;;;;70.47;8.18;;;;;;;;;;5022963;28;20030;-55
2024/01/24 10:48:01;;;;;;;44.75;6.15;;;;;;;;;;5011968;28;20032;-55
2024/01/24 10:50:27;;;;;;;43.08;7.10;;;;;;;;;;5019746;28;20032;-57
2024/01/24 10:52:53;;;;;;;50.25;6.93;;;;;;;;;;5012798;28;20026;-58
2024/01/24 10:55:20;;;;;;;53.35;7.68;;;;;;;;;;5021773;28;20026;-56
2024/01/24 10:57:47;;;;;;;51.03;8.23;;;;;;;;;;5011338;28;20029;-59
2024/01/24 11:00:15;;;;;;;41.05;6.88;;;;;;;;;;5023616;28;20109;-54
2024/01/24 11:02:41;;;;;;;39.30;6.82;;;;;;;;;;5011783;28;20495;-55
2024/01/24 11:05:09;;;;;;;45.70;7.47;;;;;;;;;;5020574;28;20058;-55
2024/01/24 11:07:43;;;;;;;42.30;7.38;;;;;;;;;;5014801;28;20053;-58
2024/01/24 11:10:28;;;;;;;55.20;7.90;;;;;;;;;;5020561;28;20377;-57
2024/01/24 11:12:54;;;;;;;51.83;6.45;;;;;;;;;;5008252;28;20042;-58
2024/01/24 11:15:22;;;;;;;42.40;6.72;;;;;;;;;;5018520;28;20025;-58
2024/01/24 11:18:07;;;;;;;53.38;8.50;;;;;;;;;;5015309;28;20033;-58
2024/01/24 11:20:45;;;;;;;47.35;6.53;;;;;;;;;;5014874;28;20621;-56
2024/01/24 11:23:30;;;;;;;31.55;6.05;;;;;;;;;;5014997;28;20017;-55
2024/01/24 11:25:56;;;;;;;46.53;7.43;;;;;;;;;;5012281;28;20052;-57
2024/01/24 11:28:25;;;;;;;45.70;6.95;;;;;;;;;;5018406;28;20021;-55
2024/01/24 11:30:51;;;;;;;48.55;5.97;;;;;;;;;;5015016;28;20029;-57
2024/01/24 11:33:18;;;;;;;46.58;6.25;;;;;;;;;;5017824;28;20033;-57
2024/01/24 11:35:45;;;;;;;57.85;7.65;;;;;;;;;;5011342;28;20048;-57
2024/01/24 11:38:11;;;;;;;55.63;9.68;;;;;;;;;;5019686;28;20034;-57
2024/01/24 11:40:38;;;;;;;46.03;6.68;;;;;;;;;;5018944;28;20533;-55
2024/01/24 11:43:04;;;;;;;54.20;7.07;;;;;;;;;;5013492;28;20038;-58
2024/01/24 11:45:30;;;;;;;47.88;7.03;;;;;;;;;;5017541;28;20026;-58
2024/01/24 11:47:57;;;;;;;48.85;7.20;;;;;;;;;;5014762;28;20038;-57
2024/01/24 11:50:23;;;;;;;54.42;6.82;;;;;;;;;;5013172;28;20018;-57
2024/01/24 11:52:49;;;;;;;49.67;7.85;;;;;;;;;;5010973;28;20022;-57
2024/01/24 11:55:15;;;;;;;52.97;9.27;;;;;;;;;;5014511;28;20029;-54
2024/01/24 11:57:41;;;;;;;38.67;7.25;;;;;;;;;;5019488;28;20032;-56
2024/01/24 12:00:09;;;;;;;60.70;8.52;;;;;;;;;;5013815;28;20112;-55
2024/01/24 12:02:35;;;;;;;43.95;6.05;;;;;;;;;;5017793;28;20030;-55
2024/01/24 12:05:01;;;;;;;49.60;7.93;;;;;;;;;;5012347;28;20029;-55
2024/01/24 12:07:27;;;;;;;57.33;7.97;;;;;;;;;;5020956;28;20072;-58
2024/01/24 12:09:53;;;;;;;49.60;7.40;;;;;;;;;;5016085;28;20030;-58
2024/01/24 12:12:19;;;;;;;41.65;7.13;;;;;;;;;;5015448;28;20026;-56
2024/01/24 12:14:45;;;;;;;51.45;7.55;;;;;;;;;;5011216;28;20117;-57
2024/01/24 12:17:12;;;;;;;41.30;8.52;;;;;;;;;;5013283;28;20079;-56
2024/01/24 12:19:42;;;;;;;49.75;7.28;;;;;;;;;;5015892;28;20492;-57
2024/01/24 12:22:09;;;;;;;50.17;6.38;;;;;;;;;;5015405;28;20044;-58
2024/01/24 12:24:39;;;;;;;40.30;6.72;;;;;;;;;;5015490;28;20063;-58
2024/01/24 12:27:06;;;;;;;45.17;7.18;;;;;;;;;;5013308;28;20102;-56
2024/01/24 12:29:33;;;;;;;40.10;7.15;;;;;;;;;;5017468;28;20032;-58
2024/01/24 12:32:00;;;;;;;34.33;6.07;;;;;;;;;;5012571;28;20064;-56
2024/01/24 12:34:28;;;;;;;50.22;6.88;;;;;;;;;;5017588;28;20533;-56
2024/01/24 12:36:55;;;;;;;48.35;7.68;;;;;;;;;;5011360;28;20076;-57
2024/01/24 12:39:27;;;;;;;43.58;6.95;;;;;;;;;;5016790;28;20026;-57
2024/01/24 12:41:54;;;;;;;55.72;7.80;;;;;;;;;;5010849;28;20060;-56
2024/01/24 12:44:20;;;;;;;46.78;7.15;;;;;;;;;;5021375;28;20048;-57
2024/01/24 12:46:46;;;;;;;35.58;5.97;;;;;;;;;;5009493;28;20472;-55
2024/01/24 12:49:12;;;;;;;55.47;7.70;;;;;;;;;;5022352;28;20033;-54
2024/01/24 12:51:38;;;;;;;40.95;7.15;;;;;;;;;;5011576;28;20608;-57
2024/01/24 12:54:04;;;;;;;34.08;5.75;;;;;;;;;;5020209;28;20034;-56
2024/01/24 12:56:30;;;;;;;50.50;6.28;;;;;;;;;;5014654;28;20036;-57
2024/01/24 12:58:56;;;;;;;55.05;7.45;;;;;;;;;;5019155;28;20033;-58
2024/01/24 13:01:23;;;;;;;45.63;7.10;;;;;;;;;;5019201;28;20034;-57
2024/01/24 13:03:49;;;;;;;49.15;7.50;;;;;;;;;;5022509;28;20026;-58
2024/01/24 13:06:16;;;;;;;54.83;6.57;;;;;;;;;;5014586;28;20028;-58
2024/01/24 13:08:42;;;;;;;59.63;9.23;;;;;;;;;;5020228;28;20396;-55
2024/01/24 13:11:08;;;;;;;55.35;6.97;;;;;;;;;;5012583;28;20033;-57
2024/01/24 13:13:35;;;;;;;55.10;7.30;;;;;;;;;;5020474;28;20986;-57
2024/01/24 13:16:00;;;;;;;36.28;7.15;;;;;;;;;;5018972;28;20044;-56
2024/01/24 13:18:26;;;;;;;47.30;6.55;;;;;;;;;;5020496;28;20026;-57
2024/01/24 13:20:52;;;;;;;42.28;6.47;;;;;;;;;;5017384;28;20029;-58
2024/01/24 13:23:18;;;;;;;42.97;6.53;;;;;;;;;;5021771;28;20096;-56
2024/01/24 13:25:44;;;;;;;44.55;6.53;;;;;;;;;;5018348;28;20034;-57
2024/01/24 13:28:10;;;;;;;45.70;7.93;;;;;;;;;;5021193;28;20018;-58
2024/01/24 13:30:37;;;;;;;50.95;7.32;;;;;;;;;;5014990;28;20189;-52
2024/01/24 13:33:03;;;;;;;50.40;7.32;;;;;;;;;;5016034;28;20037;-57
2024/01/24 13:35:30;;;;;;;45.67;6.97;;;;;;;;;;5016994;28;20087;-58
2024/01/24 13:37:57;;;;;;;49.88;6.75;;;;;;;;;;5020707;28;20050;-59
2024/01/24 13:40:23;;;;;;;42.47;7.18;;;;;;;;;;5019156;28;20029;-57
2024/01/24 13:42:51;;;;;;;45.20;6.95;;;;;;;;;;5014067;28;20036;-58
2024/01/24 13:45:17;;;;;;;49.58;7.40;;;;;;;;;;5021371;28;20034;-58
2024/01/24 13:47:43;;;;;;;51.58;8.23;;;;;;;;;;5016399;28;20060;-56
2024/01/24 13:50:09;;;;;;;39.35;6.95;;;;;;;;;;5019202;28;20025;-57
2024/01/24 13:52:35;;;;;;;52.25;7.10;;;;;;;;;;5015672;28;20073;-57
2024/01/24 13:55:01;;;;;;;40.63;6.43;;;;;;;;;;5004401;28;20034;-58
2024/01/24 13:57:27;;;;;;;42.22;7.03;;;;;;;;;;5014991;28;20021;-58
2024/01/24 13:59:53;;;;;;;38.28;6.60;;;;;;;;;;5015994;28;20034;-54
2024/01/24 14:02:19;;;;;;;52.95;6.43;;;;;;;;;;5010712;28;20120;-58
2024/01/24 14:04:45;;;;;;;55.30;8.02;;;;;;;;;;5011983;28;20064;-58
2024/01/24 14:07:11;;;;;;;46.72;6.90;;;;;;;;;;5012269;28;20439;-55
2024/01/24 14:09:37;;;;;;;52.03;6.03;;;;;;;;;;5012604;28;20440;-58
2024/01/24 14:12:03;;;;;;;53.92;8.43;;;;;;;;;;5004865;28;20067;-57
2024/01/24 14:14:29;;;;;;;49.10;6.97;;;;;;;;;;5012630;28;20025;-56
2024/01/24 14:16:55;;;;;;;51.20;5.97;;;;;;;;;;5012322;28;20042;-58
2024/01/24 14:19:23;;;;;;;38.25;8.02;;;;;;;;;;5018723;28;20499;-58
2024/01/24 14:21:49;;;;;;;45.88;6.10;;;;;;;;;;5016244;28;20038;-57
2024/01/24 14:24:15;;;;;;;50.35;7.28;;;;;;;;;;5019108;28;20105;-55
2024/01/24 14:26:41;;;;;;;42.28;5.88;;;;;;;;;;5011748;28;20076;-55
2024/01/24 14:29:07;;;;;;;42.47;6.07;;;;;;;;;;5017732;28;20069;-57
2024/01/24 14:31:33;;;;;;;44.10;5.75;;;;;;;;;;5013143;28;20036;-58